sensor_id;sensor_type;location;lat;lon;timestamp;P1;durP1;ratioP1;P2;durP2;ratioP2
80494;SDS011;69819;48.798;11.770;2024-03-07T00:00:06;20.00;;;13.00;;
80494;SDS011;69819;48.798;11.770;2024-03-07T00:02:40;17.85;;;11.93;;
80494;SDS011;69819;48.798;11.770;2024-03-07T00:05:07;19.75;;;13.27;;
80494;SDS011;69819;48.798;11.770;2024-03-07T00:07:33;19.35;;;13.10;;
80494;SDS011;69819;48.798;11.770;2024-03-07T00:10:00;17.80;;;12.13;;
80494;SDS011;69819;48.798;11.770;2024-03-07T00:12:28;17.75;;;12.00;;
80494;SDS011;69819;48.798;11.770;2024-03-07T00:14:55;19.98;;;12.32;;
80494;SDS011;69819;48.798;11.770;2024-03-07T00:17:21;19.10;;;11.95;;
80494;SDS011;69819;48.798;11.770;2024-03-07T00:19:48;20.95;;;12.77;;
80494;SDS011;69819;48.798;11.770;2024-03-07T00:22:13;17.13;;;11.93;;
80494;SDS011;69819;48.798;11.770;2024-03-07T00:24:39;17.65;;;11.85;;
80494;SDS011;69819;48.798;11.770;2024-03-07T00:27:05;19.38;;;12.63;;
80494;SDS011;69819;48.798;11.770;2024-03-07T00:29:32;18.02;;;12.40;;
80494;SDS011;69819;48.798;11.770;2024-03-07T00:32:00;20.90;;;12.30;;
80494;SDS011;69819;48.798;11.770;2024-03-07T00:34:26;18.80;;;11.60;;
80494;SDS011;69819;48.798;11.770;2024-03-07T00:36:52;18.85;;;11.88;;
80494;SDS011;69819;48.798;11.770;2024-03-07T00:39:18;18.27;;;12.35;;
80494;SDS011;69819;48.798;11.770;2024-03-07T00:41:44;20.60;;;13.02;;
80494;SDS011;69819;48.798;11.770;2024-03-07T00:44:10;18.65;;;12.25;;
80494;SDS011;69819;48.798;11.770;2024-03-07T00:46:36;21.60;;;12.60;;
80494;SDS011;69819;48.798;11.770;2024-03-07T00:49:03;20.15;;;12.90;;
80494;SDS011;69819;48.798;11.770;2024-03-07T00:51:30;21.48;;;13.75;;
80494;SDS011;69819;48.798;11.770;2024-03-07T00:53:56;20.35;;;12.98;;
80494;SDS011;69819;48.798;11.770;2024-03-07T00:56:23;19.48;;;12.90;;
80494;SDS011;69819;48.798;11.770;2024-03-07T00:58:49;22.55;;;13.43;;
80494;SDS011;69819;48.798;11.770;2024-03-07T01:01:16;21.52;;;13.70;;
80494;SDS011;69819;48.798;11.770;2024-03-07T01:03:43;21.30;;;14.13;;
80494;SDS011;69819;48.798;11.770;2024-03-07T01:06:10;21.60;;;13.27;;
80494;SDS011;69819;48.798;11.770;2024-03-07T01:08:36;20.42;;;12.68;;
80494;SDS011;69819;48.798;11.770;2024-03-07T01:11:03;21.15;;;12.98;;
80494;SDS011;69819;48.798;11.770;2024-03-07T01:13:35;19.75;;;12.73;;
80494;SDS011;69819;48.798;11.770;2024-03-07T01:16:02;19.95;;;12.63;;
80494;SDS011;69819;48.798;11.770;2024-03-07T01:18:28;21.08;;;12.63;;
80494;SDS011;69819;48.798;11.770;2024-03-07T01:20:54;22.58;;;14.07;;
80494;SDS011;69819;48.798;11.770;2024-03-07T01:23:20;19.52;;;12.57;;
80494;SDS011;69819;48.798;11.770;2024-03-07T01:25:46;22.08;;;14.20;;
80494;SDS011;69819;48.798;11.770;2024-03-07T01:28:11;20.15;;;13.52;;
80494;SDS011;69819;48.798;11.770;2024-03-07T01:30:39;23.73;;;13.82;;
80494;SDS011;69819;48.798;11.770;2024-03-07T01:33:05;18.95;;;12.57;;
80494;SDS011;69819;48.798;11.770;2024-03-07T01:35:30;19.27;;;12.57;;
80494;SDS011;69819;48.798;11.770;2024-03-07T01:37:56;19.27;;;12.55;;
80494;SDS011;69819;48.798;11.770;2024-03-07T01:40:22;19.10;;;12.07;;
80494;SDS011;69819;48.798;11.770;2024-03-07T01:42:49;19.98;;;11.50;;
80494;SDS011;69819;48.798;11.770;2024-03-07T01:45:15;21.00;;;12.02;;
80494;SDS011;69819;48.798;11.770;2024-03-07T01:47:44;22.23;;;13.70;;
80494;SDS011;69819;48.798;11.770;2024-03-07T01:50:11;19.75;;;12.80;;
80494;SDS011;69819;48.798;11.770;2024-03-07T01:52:38;22.15;;;14.10;;
80494;SDS011;69819;48.798;11.770;2024-03-07T01:55:07;19.88;;;13.13;;
80494;SDS011;69819;48.798;11.770;2024-03-07T01:57:35;21.85;;;12.95;;
80494;SDS011;69819;48.798;11.770;2024-03-07T02:00:01;21.70;;;13.00;;
80494;SDS011;69819;48.798;11.770;2024-03-07T02:02:31;19.83;;;13.00;;
80494;SDS011;69819;48.798;11.770;2024-03-07T02:04:57;19.40;;;12.70;;
80494;SDS011;69819;48.798;11.770;2024-03-07T02:07:23;21.63;;;12.65;;
80494;SDS011;69819;48.798;11.770;2024-03-07T02:09:58;21.20;;;13.10;;
80494;SDS011;69819;48.798;11.770;2024-03-07T02:12:26;16.10;;;9.82;;
80494;SDS011;69819;48.798;11.770;2024-03-07T02:14:51;19.67;;;12.38;;
80494;SDS011;69819;48.798;11.770;2024-03-07T02:17:17;23.75;;;13.43;;
80494;SDS011;69819;48.798;11.770;2024-03-07T02:19:45;19.75;;;12.63;;
80494;SDS011;69819;48.798;11.770;2024-03-07T02:22:11;21.98;;;13.90;;
80494;SDS011;69819;48.798;11.770;2024-03-07T02:24:38;21.50;;;12.48;;
80494;SDS011;69819;48.798;11.770;2024-03-07T02:27:04;20.83;;;12.15;;
80494;SDS011;69819;48.798;11.770;2024-03-07T02:29:29;21.02;;;12.80;;
80494;SDS011;69819;48.798;11.770;2024-03-07T02:31:55;23.48;;;13.70;;
80494;SDS011;69819;48.798;11.770;2024-03-07T02:34:21;21.45;;;12.95;;
80494;SDS011;69819;48.798;11.770;2024-03-07T02:36:47;21.15;;;13.70;;
80494;SDS011;69819;48.798;11.770;2024-03-07T02:39:13;23.30;;;14.00;;
80494;SDS011;69819;48.798;11.770;2024-03-07T02:41:40;21.75;;;13.68;;
80494;SDS011;69819;48.798;11.770;2024-03-07T02:44:06;19.35;;;12.40;;
80494;SDS011;69819;48.798;11.770;2024-03-07T02:46:31;19.77;;;12.75;;
80494;SDS011;69819;48.798;11.770;2024-03-07T02:48:57;21.27;;;13.00;;
80494;SDS011;69819;48.798;11.770;2024-03-07T02:51:24;23.63;;;13.50;;
80494;SDS011;69819;48.798;11.770;2024-03-07T02:53:50;20.83;;;14.13;;
80494;SDS011;69819;48.798;11.770;2024-03-07T02:56:15;23.45;;;13.95;;
80494;SDS011;69819;48.798;11.770;2024-03-07T02:58:41;21.85;;;13.35;;
80494;SDS011;69819;48.798;11.770;2024-03-07T03:01:07;19.42;;;13.15;;
80494;SDS011;69819;48.798;11.770;2024-03-07T03:03:33;21.73;;;12.82;;
80494;SDS011;69819;48.798;11.770;2024-03-07T03:05:59;23.60;;;14.27;;
80494;SDS011;69819;48.798;11.770;2024-03-07T03:08:25;19.83;;;12.88;;
80494;SDS011;69819;48.798;11.770;2024-03-07T03:10:53;23.08;;;13.25;;
80494;SDS011;69819;48.798;11.770;2024-03-07T03:13:21;22.38;;;13.18;;
80494;SDS011;69819;48.798;11.770;2024-03-07T03:15:49;23.50;;;13.07;;
80494;SDS011;69819;48.798;11.770;2024-03-07T03:18:15;21.00;;;12.98;;
80494;SDS011;69819;48.798;11.770;2024-03-07T03:20:41;22.52;;;13.02;;
80494;SDS011;69819;48.798;11.770;2024-03-07T03:23:08;22.10;;;12.20;;
80494;SDS011;69819;48.798;11.770;2024-03-07T03:25:38;18.40;;;12.05;;
80494;SDS011;69819;48.798;11.770;2024-03-07T03:28:05;21.00;;;12.60;;
80494;SDS011;69819;48.798;11.770;2024-03-07T03:30:40;15.85;;;8.85;;
80494;SDS011;69819;48.798;11.770;2024-03-07T03:33:06;17.58;;;11.70;;
80494;SDS011;69819;48.798;11.770;2024-03-07T03:35:39;17.70;;;11.23;;
80494;SDS011;69819;48.798;11.770;2024-03-07T03:38:05;20.70;;;12.23;;
80494;SDS011;69819;48.798;11.770;2024-03-07T03:40:32;19.52;;;12.25;;
80494;SDS011;69819;48.798;11.770;2024-03-07T03:42:59;21.27;;;13.13;;
80494;SDS011;69819;48.798;11.770;2024-03-07T03:45:25;21.50;;;12.68;;
80494;SDS011;69819;48.798;11.770;2024-03-07T03:47:52;20.98;;;12.80;;
80494;SDS011;69819;48.798;11.770;2024-03-07T03:50:19;19.65;;;12.98;;
80494;SDS011;69819;48.798;11.770;2024-03-07T03:52:48;22.25;;;12.98;;
80494;SDS011;69819;48.798;11.770;2024-03-07T03:55:14;20.65;;;13.10;;
80494;SDS011;69819;48.798;11.770;2024-03-07T03:57:41;20.70;;;12.32;;
80494;SDS011;69819;48.798;11.770;2024-03-07T04:00:09;19.67;;;12.52;;
80494;SDS011;69819;48.798;11.770;2024-03-07T04:05:06;18.83;;;11.95;;
80494;SDS011;69819;48.798;11.770;2024-03-07T04:07:34;20.65;;;12.50;;
80494;SDS011;69819;48.798;11.770;2024-03-07T04:10:00;19.15;;;12.10;;
80494;SDS011;69819;48.798;11.770;2024-03-07T04:12:32;19.27;;;11.82;;
80494;SDS011;69819;48.798;11.770;2024-03-07T04:15:03;21.38;;;13.40;;
80494;SDS011;69819;48.798;11.770;2024-03-07T04:17:33;20.45;;;12.43;;
80494;SDS011;69819;48.798;11.770;2024-03-07T04:20:00;21.60;;;12.88;;
80494;SDS011;69819;48.798;11.770;2024-03-07T04:22:30;20.15;;;12.20;;
80494;SDS011;69819;48.798;11.770;2024-03-07T04:24:57;17.30;;;11.80;;
80494;SDS011;69819;48.798;11.770;2024-03-07T04:27:24;20.38;;;12.32;;
80494;SDS011;69819;48.798;11.770;2024-03-07T04:29:51;19.73;;;12.13;;
80494;SDS011;69819;48.798;11.770;2024-03-07T04:32:17;18.85;;;11.82;;
80494;SDS011;69819;48.798;11.770;2024-03-07T04:34:43;19.13;;;11.95;;
80494;SDS011;69819;48.798;11.770;2024-03-07T04:37:09;20.13;;;12.38;;
80494;SDS011;69819;48.798;11.770;2024-03-07T04:39:35;18.77;;;12.15;;
80494;SDS011;69819;48.798;11.770;2024-03-07T04:42:06;18.55;;;12.48;;
80494;SDS011;69819;48.798;11.770;2024-03-07T04:44:34;20.08;;;12.07;;
80494;SDS011;69819;48.798;11.770;2024-03-07T04:47:02;19.27;;;12.38;;
80494;SDS011;69819;48.798;11.770;2024-03-07T04:49:30;21.55;;;12.35;;
80494;SDS011;69819;48.798;11.770;2024-03-07T04:51:58;21.23;;;12.70;;
80494;SDS011;69819;48.798;11.770;2024-03-07T04:54:26;19.75;;;12.65;;
80494;SDS011;69819;48.798;11.770;2024-03-07T04:56:53;19.35;;;12.70;;
80494;SDS011;69819;48.798;11.770;2024-03-07T04:59:20;19.50;;;12.43;;
80494;SDS011;69819;48.798;11.770;2024-03-07T05:01:47;20.83;;;12.57;;
80494;SDS011;69819;48.798;11.770;2024-03-07T05:04:15;19.50;;;12.65;;
80494;SDS011;69819;48.798;11.770;2024-03-07T05:06:42;19.80;;;13.02;;
80494;SDS011;69819;48.798;11.770;2024-03-07T05:09:09;20.90;;;12.88;;
80494;SDS011;69819;48.798;11.770;2024-03-07T05:11:48;19.50;;;12.57;;
80494;SDS011;69819;48.798;11.770;2024-03-07T05:14:17;18.25;;;12.18;;
80494;SDS011;69819;48.798;11.770;2024-03-07T05:16:43;19.83;;;12.45;;
80494;SDS011;69819;48.798;11.770;2024-03-07T05:19:09;19.35;;;11.57;;
80494;SDS011;69819;48.798;11.770;2024-03-07T05:21:35;17.63;;;12.20;;
80494;SDS011;69819;48.798;11.770;2024-03-07T05:24:05;21.52;;;13.13;;
80494;SDS011;69819;48.798;11.770;2024-03-07T05:26:35;22.05;;;12.98;;
80494;SDS011;69819;48.798;11.770;2024-03-07T05:29:06;20.52;;;12.30;;
80494;SDS011;69819;48.798;11.770;2024-03-07T05:31:42;20.02;;;12.15;;
80494;SDS011;69819;48.798;11.770;2024-03-07T05:34:12;20.30;;;12.68;;
80494;SDS011;69819;48.798;11.770;2024-03-07T05:36:39;22.33;;;12.98;;
80494;SDS011;69819;48.798;11.770;2024-03-07T05:39:12;20.52;;;12.98;;
80494;SDS011;69819;48.798;11.770;2024-03-07T05:41:39;18.52;;;12.07;;
80494;SDS011;69819;48.798;11.770;2024-03-07T05:44:07;21.65;;;13.07;;
80494;SDS011;69819;48.798;11.770;2024-03-07T05:46:33;22.15;;;13.13;;
80494;SDS011;69819;48.798;11.770;2024-03-07T05:49:09;19.45;;;12.05;;
80494;SDS011;69819;48.798;11.770;2024-03-07T05:51:35;20.33;;;12.32;;
80494;SDS011;69819;48.798;11.770;2024-03-07T05:54:02;18.88;;;11.98;;
80494;SDS011;69819;48.798;11.770;2024-03-07T05:56:32;19.92;;;12.52;;
80494;SDS011;69819;48.798;11.770;2024-03-07T05:59:04;19.75;;;11.73;;
80494;SDS011;69819;48.798;11.770;2024-03-07T06:01:36;21.33;;;12.95;;
80494;SDS011;69819;48.798;11.770;2024-03-07T06:04:04;21.77;;;12.75;;
80494;SDS011;69819;48.798;11.770;2024-03-07T06:06:34;22.77;;;13.32;;
80494;SDS011;69819;48.798;11.770;2024-03-07T06:09:09;19.25;;;11.77;;
80494;SDS011;69819;48.798;11.770;2024-03-07T06:11:38;20.20;;;12.85;;
80494;SDS011;69819;48.798;11.770;2024-03-07T06:14:08;20.40;;;12.02;;
80494;SDS011;69819;48.798;11.770;2024-03-07T06:16:37;18.65;;;12.50;;
80494;SDS011;69819;48.798;11.770;2024-03-07T06:19:05;20.70;;;13.38;;
80494;SDS011;69819;48.798;11.770;2024-03-07T06:21:33;19.40;;;11.90;;
80494;SDS011;69819;48.798;11.770;2024-03-07T06:24:02;19.00;;;12.35;;
80494;SDS011;69819;48.798;11.770;2024-03-07T06:26:31;22.48;;;13.23;;
80494;SDS011;69819;48.798;11.770;2024-03-07T06:29:25;22.80;;;12.88;;
80494;SDS011;69819;48.798;11.770;2024-03-07T06:31:53;19.33;;;12.32;;
80494;SDS011;69819;48.798;11.770;2024-03-07T06:34:20;20.38;;;12.38;;
80494;SDS011;69819;48.798;11.770;2024-03-07T06:36:45;22.10;;;12.27;;
80494;SDS011;69819;48.798;11.770;2024-03-07T06:39:11;20.27;;;12.68;;
80494;SDS011;69819;48.798;11.770;2024-03-07T06:41:37;20.23;;;12.77;;
80494;SDS011;69819;48.798;11.770;2024-03-07T06:44:04;20.27;;;12.80;;
80494;SDS011;69819;48.798;11.770;2024-03-07T06:46:32;20.05;;;12.23;;
80494;SDS011;69819;48.798;11.770;2024-03-07T06:48:59;21.25;;;12.80;;
80494;SDS011;69819;48.798;11.770;2024-03-07T06:51:24;18.63;;;12.23;;
80494;SDS011;69819;48.798;11.770;2024-03-07T06:53:50;20.70;;;12.63;;
80494;SDS011;69819;48.798;11.770;2024-03-07T06:56:16;20.40;;;13.15;;
80494;SDS011;69819;48.798;11.770;2024-03-07T06:58:43;22.88;;;14.23;;
80494;SDS011;69819;48.798;11.770;2024-03-07T07:01:12;23.15;;;13.80;;
80494;SDS011;69819;48.798;11.770;2024-03-07T07:03:41;18.85;;;12.30;;
80494;SDS011;69819;48.798;11.770;2024-03-07T07:06:12;21.17;;;14.15;;
80494;SDS011;69819;48.798;11.770;2024-03-07T07:08:38;19.65;;;12.85;;
80494;SDS011;69819;48.798;11.770;2024-03-07T07:11:04;20.30;;;13.50;;
80494;SDS011;69819;48.798;11.770;2024-03-07T07:13:30;20.63;;;13.52;;
80494;SDS011;69819;48.798;11.770;2024-03-07T07:15:56;21.10;;;13.32;;
80494;SDS011;69819;48.798;11.770;2024-03-07T07:18:22;20.60;;;12.68;;
80494;SDS011;69819;48.798;11.770;2024-03-07T07:20:49;22.50;;;13.70;;
80494;SDS011;69819;48.798;11.770;2024-03-07T07:23:17;20.38;;;12.02;;
80494;SDS011;69819;48.798;11.770;2024-03-07T07:25:44;20.75;;;13.68;;
80494;SDS011;69819;48.798;11.770;2024-03-07T07:28:11;19.75;;;13.07;;
80494;SDS011;69819;48.798;11.770;2024-03-07T07:30:37;20.55;;;12.77;;
80494;SDS011;69819;48.798;11.770;2024-03-07T07:33:03;21.85;;;13.65;;
80494;SDS011;69819;48.798;11.770;2024-03-07T07:35:29;24.02;;;13.98;;
80494;SDS011;69819;48.798;11.770;2024-03-07T07:37:55;23.88;;;14.65;;
80494;SDS011;69819;48.798;11.770;2024-03-07T07:40:21;18.85;;;12.98;;
80494;SDS011;69819;48.798;11.770;2024-03-07T07:42:50;21.90;;;12.32;;
80494;SDS011;69819;48.798;11.770;2024-03-07T07:45:18;20.05;;;12.40;;
80494;SDS011;69819;48.798;11.770;2024-03-07T07:47:50;20.08;;;13.85;;
80494;SDS011;69819;48.798;11.770;2024-03-07T07:50:21;21.25;;;14.30;;
80494;SDS011;69819;48.798;11.770;2024-03-07T07:52:55;18.77;;;12.90;;
80494;SDS011;69819;48.798;11.770;2024-03-07T07:55:23;19.08;;;13.32;;
80494;SDS011;69819;48.798;11.770;2024-03-07T07:57:55;18.98;;;13.32;;
80494;SDS011;69819;48.798;11.770;2024-03-07T08:00:24;18.98;;;12.75;;
80494;SDS011;69819;48.798;11.770;2024-03-07T08:02:57;18.05;;;13.18;;
80494;SDS011;69819;48.798;11.770;2024-03-07T08:05:25;19.13;;;13.18;;
80494;SDS011;69819;48.798;11.770;2024-03-07T08:07:58;22.90;;;13.95;;
80494;SDS011;69819;48.798;11.770;2024-03-07T08:10:30;19.73;;;13.40;;
80494;SDS011;69819;48.798;11.770;2024-03-07T08:12:58;19.50;;;13.43;;
80494;SDS011;69819;48.798;11.770;2024-03-07T08:15:27;19.67;;;13.38;;
80494;SDS011;69819;48.798;11.770;2024-03-07T08:17:54;19.52;;;13.77;;
80494;SDS011;69819;48.798;11.770;2024-03-07T08:20:21;16.83;;;12.27;;
80494;SDS011;69819;48.798;11.770;2024-03-07T08:22:49;16.30;;;11.90;;
80494;SDS011;69819;48.798;11.770;2024-03-07T08:25:19;18.02;;;12.50;;
80494;SDS011;69819;48.798;11.770;2024-03-07T08:27:48;14.70;;;11.23;;
80494;SDS011;69819;48.798;11.770;2024-03-07T08:30:15;15.05;;;11.15;;
80494;SDS011;69819;48.798;11.770;2024-03-07T08:32:42;16.27;;;11.23;;
80494;SDS011;69819;48.798;11.770;2024-03-07T08:35:10;15.95;;;11.20;;
80494;SDS011;69819;48.798;11.770;2024-03-07T08:37:41;17.00;;;12.23;;
80494;SDS011;69819;48.798;11.770;2024-03-07T08:40:09;16.77;;;12.02;;
80494;SDS011;69819;48.798;11.770;2024-03-07T08:42:42;18.20;;;12.13;;
80494;SDS011;69819;48.798;11.770;2024-03-07T08:45:08;15.00;;;10.95;;
80494;SDS011;69819;48.798;11.770;2024-03-07T08:47:35;15.75;;;11.38;;
80494;SDS011;69819;48.798;11.770;2024-03-07T08:50:03;15.73;;;11.82;;
80494;SDS011;69819;48.798;11.770;2024-03-07T08:52:38;15.38;;;11.40;;
80494;SDS011;69819;48.798;11.770;2024-03-07T08:55:05;14.45;;;11.25;;
80494;SDS011;69819;48.798;11.770;2024-03-07T08:57:34;15.95;;;11.43;;
80494;SDS011;69819;48.798;11.770;2024-03-07T09:00:02;17.60;;;12.10;;
80494;SDS011;69819;48.798;11.770;2024-03-07T09:02:33;15.77;;;11.07;;
80494;SDS011;69819;48.798;11.770;2024-03-07T09:05:01;16.35;;;11.27;;
80494;SDS011;69819;48.798;11.770;2024-03-07T09:07:27;16.67;;;11.05;;
80494;SDS011;69819;48.798;11.770;2024-03-07T09:09:54;16.17;;;11.35;;
80494;SDS011;69819;48.798;11.770;2024-03-07T09:12:20;15.73;;;11.48;;
80494;SDS011;69819;48.798;11.770;2024-03-07T09:14:47;16.67;;;11.10;;
80494;SDS011;69819;48.798;11.770;2024-03-07T09:17:13;13.73;;;9.52;;
80494;SDS011;69819;48.798;11.770;2024-03-07T09:19:38;16.08;;;11.23;;
80494;SDS011;69819;48.798;11.770;2024-03-07T09:22:04;13.75;;;10.10;;
80494;SDS011;69819;48.798;11.770;2024-03-07T09:24:33;13.30;;;10.30;;
80494;SDS011;69819;48.798;11.770;2024-03-07T09:26:59;16.25;;;10.05;;
80494;SDS011;69819;48.798;11.770;2024-03-07T09:29:26;14.60;;;10.48;;
80494;SDS011;69819;48.798;11.770;2024-03-07T09:31:52;14.45;;;10.60;;
80494;SDS011;69819;48.798;11.770;2024-03-07T09:34:21;16.08;;;11.73;;
80494;SDS011;69819;48.798;11.770;2024-03-07T09:36:49;15.30;;;9.98;;
80494;SDS011;69819;48.798;11.770;2024-03-07T09:39:15;16.15;;;10.85;;
80494;SDS011;69819;48.798;11.770;2024-03-07T09:41:42;16.23;;;10.98;;
80494;SDS011;69819;48.798;11.770;2024-03-07T09:44:09;16.63;;;11.23;;
80494;SDS011;69819;48.798;11.770;2024-03-07T09:46:38;15.75;;;11.38;;
80494;SDS011;69819;48.798;11.770;2024-03-07T09:49:05;14.57;;;10.63;;
80494;SDS011;69819;48.798;11.770;2024-03-07T09:51:33;15.63;;;11.07;;
80494;SDS011;69819;48.798;11.770;2024-03-07T09:54:00;15.13;;;10.80;;
80494;SDS011;69819;48.798;11.770;2024-03-07T09:56:27;16.35;;;11.10;;
80494;SDS011;69819;48.798;11.770;2024-03-07T09:59:01;15.82;;;11.48;;
80494;SDS011;69819;48.798;11.770;2024-03-07T10:01:30;15.45;;;10.40;;
80494;SDS011;69819;48.798;11.770;2024-03-07T10:04:00;15.18;;;11.15;;
80494;SDS011;69819;48.798;11.770;2024-03-07T10:06:36;14.65;;;10.40;;
80494;SDS011;69819;48.798;11.770;2024-03-07T10:09:05;15.18;;;10.32;;
80494;SDS011;69819;48.798;11.770;2024-03-07T10:11:32;16.25;;;11.10;;
80494;SDS011;69819;48.798;11.770;2024-03-07T10:14:01;17.30;;;11.75;;
80494;SDS011;69819;48.798;11.770;2024-03-07T10:16:29;17.50;;;11.88;;
80494;SDS011;69819;48.798;11.770;2024-03-07T10:18:57;14.52;;;10.15;;
80494;SDS011;69819;48.798;11.770;2024-03-07T10:21:23;12.88;;;8.93;;
80494;SDS011;69819;48.798;11.770;2024-03-07T10:23:49;13.65;;;10.10;;
80494;SDS011;69819;48.798;11.770;2024-03-07T10:26:18;12.35;;;8.77;;
80494;SDS011;69819;48.798;11.770;2024-03-07T10:28:44;12.77;;;9.55;;
80494;SDS011;69819;48.798;11.770;2024-03-07T10:31:10;12.88;;;9.07;;
80494;SDS011;69819;48.798;11.770;2024-03-07T10:33:39;13.52;;;9.07;;
80494;SDS011;69819;48.798;11.770;2024-03-07T10:36:05;12.65;;;9.00;;
80494;SDS011;69819;48.798;11.770;2024-03-07T10:38:38;11.82;;;8.40;;
80494;SDS011;69819;48.798;11.770;2024-03-07T10:41:05;11.55;;;8.48;;
80494;SDS011;69819;48.798;11.770;2024-03-07T10:43:34;13.18;;;8.73;;
80494;SDS011;69819;48.798;11.770;2024-03-07T10:46:03;11.75;;;8.77;;
80494;SDS011;69819;48.798;11.770;2024-03-07T10:48:35;15.23;;;9.65;;
80494;SDS011;69819;48.798;11.770;2024-03-07T11:04:19;15.45;;;9.98;;
80494;SDS011;69819;48.798;11.770;2024-03-07T11:06:49;15.70;;;8.93;;
80494;SDS011;69819;48.798;11.770;2024-03-07T11:09:15;12.77;;;8.82;;
80494;SDS011;69819;48.798;11.770;2024-03-07T11:11:48;12.88;;;8.57;;
80494;SDS011;69819;48.798;11.770;2024-03-07T11:14:14;14.25;;;10.48;;
80494;SDS011;69819;48.798;11.770;2024-03-07T11:16:42;11.98;;;8.85;;
80494;SDS011;69819;48.798;11.770;2024-03-07T11:19:19;10.77;;;8.27;;
80494;SDS011;69819;48.798;11.770;2024-03-07T11:22:01;14.38;;;9.35;;
80494;SDS011;69819;48.798;11.770;2024-03-07T11:24:39;11.48;;;8.55;;
80494;SDS011;69819;48.798;11.770;2024-03-07T11:27:05;16.33;;;10.75;;
80494;SDS011;69819;48.798;11.770;2024-03-07T11:29:39;13.13;;;9.60;;
80494;SDS011;69819;48.798;11.770;2024-03-07T11:32:13;13.73;;;9.63;;
80494;SDS011;69819;48.798;11.770;2024-03-07T11:34:41;12.60;;;8.68;;
80494;SDS011;69819;48.798;11.770;2024-03-07T11:37:11;14.27;;;9.35;;
80494;SDS011;69819;48.798;11.770;2024-03-07T11:40:01;12.23;;;8.25;;
80494;SDS011;69819;48.798;11.770;2024-03-07T11:42:33;11.60;;;8.18;;
80494;SDS011;69819;48.798;11.770;2024-03-07T11:45:01;11.52;;;8.88;;
80494;SDS011;69819;48.798;11.770;2024-03-07T11:47:35;12.43;;;8.27;;
80494;SDS011;69819;48.798;11.770;2024-03-07T11:50:04;10.65;;;8.30;;
80494;SDS011;69819;48.798;11.770;2024-03-07T11:52:36;13.00;;;8.75;;
80494;SDS011;69819;48.798;11.770;2024-03-07T11:55:07;11.82;;;8.52;;
80494;SDS011;69819;48.798;11.770;2024-03-07T11:57:33;11.23;;;7.93;;
80494;SDS011;69819;48.798;11.770;2024-03-07T12:00:00;10.15;;;7.43;;
80494;SDS011;69819;48.798;11.770;2024-03-07T12:02:33;14.98;;;9.73;;
80494;SDS011;69819;48.798;11.770;2024-03-07T12:04:59;14.18;;;9.25;;
80494;SDS011;69819;48.798;11.770;2024-03-07T12:07:25;13.43;;;8.90;;
80494;SDS011;69819;48.798;11.770;2024-03-07T12:09:52;14.45;;;9.93;;
80494;SDS011;69819;48.798;11.770;2024-03-07T12:12:21;13.45;;;9.60;;
80494;SDS011;69819;48.798;11.770;2024-03-07T12:14:49;12.60;;;9.15;;
80494;SDS011;69819;48.798;11.770;2024-03-07T12:17:19;12.50;;;8.73;;
80494;SDS011;69819;48.798;11.770;2024-03-07T12:19:46;13.40;;;9.68;;
80494;SDS011;69819;48.798;11.770;2024-03-07T12:22:12;14.05;;;9.32;;
80494;SDS011;69819;48.798;11.770;2024-03-07T12:24:39;15.25;;;9.52;;
80494;SDS011;69819;48.798;11.770;2024-03-07T12:27:08;15.10;;;9.68;;
80494;SDS011;69819;48.798;11.770;2024-03-07T12:29:36;12.93;;;8.98;;
80494;SDS011;69819;48.798;11.770;2024-03-07T12:32:07;14.70;;;8.85;;
80494;SDS011;69819;48.798;11.770;2024-03-07T12:34:35;13.23;;;9.43;;
80494;SDS011;69819;48.798;11.770;2024-03-07T12:37:09;13.93;;;9.23;;
80494;SDS011;69819;48.798;11.770;2024-03-07T12:39:35;12.73;;;8.55;;
80494;SDS011;69819;48.798;11.770;2024-03-07T12:42:03;12.65;;;9.00;;
80494;SDS011;69819;48.798;11.770;2024-03-07T12:44:40;14.40;;;8.73;;
80494;SDS011;69819;48.798;11.770;2024-03-07T12:47:13;13.23;;;9.02;;
80494;SDS011;69819;48.798;11.770;2024-03-07T12:49:43;13.95;;;9.30;;
80494;SDS011;69819;48.798;11.770;2024-03-07T12:52:10;12.70;;;9.13;;
80494;SDS011;69819;48.798;11.770;2024-03-07T12:54:40;12.93;;;9.45;;
80494;SDS011;69819;48.798;11.770;2024-03-07T12:57:07;14.38;;;10.05;;
80494;SDS011;69819;48.798;11.770;2024-03-07T12:59:34;13.40;;;8.85;;
80494;SDS011;69819;48.798;11.770;2024-03-07T13:02:10;13.70;;;8.95;;
80494;SDS011;69819;48.798;11.770;2024-03-07T13:04:37;13.80;;;8.95;;
80494;SDS011;69819;48.798;11.770;2024-03-07T13:07:06;14.88;;;9.15;;
80494;SDS011;69819;48.798;11.770;2024-03-07T13:09:33;11.98;;;8.10;;
80494;SDS011;69819;48.798;11.770;2024-03-07T13:11:59;14.05;;;9.13;;
80494;SDS011;69819;48.798;11.770;2024-03-07T13:14:27;11.30;;;8.38;;
80494;SDS011;69819;48.798;11.770;2024-03-07T13:17:04;14.18;;;9.23;;
80494;SDS011;69819;48.798;11.770;2024-03-07T13:19:33;11.35;;;8.43;;
80494;SDS011;69819;48.798;11.770;2024-03-07T13:21:58;13.40;;;9.30;;
80494;SDS011;69819;48.798;11.770;2024-03-07T13:24:25;11.52;;;7.97;;
80494;SDS011;69819;48.798;11.770;2024-03-07T13:26:53;10.68;;;7.80;;
80494;SDS011;69819;48.798;11.770;2024-03-07T13:29:19;11.50;;;8.70;;
80494;SDS011;69819;48.798;11.770;2024-03-07T13:31:52;11.77;;;8.57;;
80494;SDS011;69819;48.798;11.770;2024-03-07T13:34:21;10.13;;;7.82;;
80494;SDS011;69819;48.798;11.770;2024-03-07T13:36:46;13.65;;;8.70;;
80494;SDS011;69819;48.798;11.770;2024-03-07T13:39:12;11.80;;;8.05;;
80494;SDS011;69819;48.798;11.770;2024-03-07T13:41:39;12.65;;;8.52;;
80494;SDS011;69819;48.798;11.770;2024-03-07T13:44:06;12.48;;;8.95;;
80494;SDS011;69819;48.798;11.770;2024-03-07T13:46:32;11.75;;;8.57;;
80494;SDS011;69819;48.798;11.770;2024-03-07T13:49:02;11.43;;;8.82;;
80494;SDS011;69819;48.798;11.770;2024-03-07T13:51:35;11.60;;;8.25;;
80494;SDS011;69819;48.798;11.770;2024-03-07T13:54:02;13.02;;;7.75;;
80494;SDS011;69819;48.798;11.770;2024-03-07T13:59:41;12.43;;;7.90;;
80494;SDS011;69819;48.798;11.770;2024-03-07T14:23:19;10.40;;;7.60;;
80494;SDS011;69819;48.798;11.770;2024-03-07T14:28:51;11.00;;;8.02;;
80494;SDS011;69819;48.798;11.770;2024-03-07T14:31:41;10.35;;;7.78;;
80494;SDS011;69819;48.798;11.770;2024-03-07T14:37:01;14.25;;;9.20;;
80494;SDS011;69819;48.798;11.770;2024-03-07T14:39:42;11.63;;;8.02;;
80494;SDS011;69819;48.798;11.770;2024-03-07T14:42:09;14.18;;;9.05;;
80494;SDS011;69819;48.798;11.770;2024-03-07T14:44:39;14.50;;;9.05;;
80494;SDS011;69819;48.798;11.770;2024-03-07T14:47:13;14.32;;;9.00;;
80494;SDS011;69819;48.798;11.770;2024-03-07T14:49:42;12.48;;;8.60;;
80494;SDS011;69819;48.798;11.770;2024-03-07T14:52:08;12.57;;;8.40;;
80494;SDS011;69819;48.798;11.770;2024-03-07T14:54:37;11.85;;;7.65;;
80494;SDS011;69819;48.798;11.770;2024-03-07T14:57:04;11.10;;;7.68;;
80494;SDS011;69819;48.798;11.770;2024-03-07T14:59:30;12.93;;;7.97;;
80494;SDS011;69819;48.798;11.770;2024-03-07T15:01:58;12.23;;;8.40;;
80494;SDS011;69819;48.798;11.770;2024-03-07T15:04:27;13.07;;;8.90;;